Time;durP1;ratioP1;P1;durP2;ratioP2;P2;SDS_P1;SDS_P2;PMS_P1;PMS_P2;Temp;Humidity;BMP_temperature;BMP_pressure;BME280_temperature;BME280_humidity;BME280_pressure;Samples;Min_cycle;Max_cycle;Signal;HPM_P1;HPM_P2
2022/01/10 10:09:18;;;;;;;3.43;2.97;;;;;;;3.87;100.00;99209.00;5187415;27;20631;-89
2022/01/10 10:11:49;;;;;;;5.43;3.43;;;;;;;5.52;100.00;99224.53;5147016;27;39469;-84
2022/01/10 10:14:20;;;;;;;5.03;2.27;;;;;;;6.40;100.00;99206.28;5146060;27;41053;-87
2022/01/10 10:16:50;;;;;;;5.70;3.10;;;;;;;7.31;95.20;99203.31;5135176;27;42306;-89
2022/01/10 10:19:20;;;;;;;4.17;3.77;;;;;;;7.80;91.73;99236.25;5152597;27;41200;-88
2022/01/10 10:21:49;;;;;;;3.63;3.27;;;;;;;7.72;89.41;99227.84;5134371;27;39020;-87
2022/01/10 10:24:19;;;;;;;3.63;2.83;;;;;;;7.84;88.42;99259.78;5135988;27;41931;-86
2022/01/10 10:26:47;;;;;;;4.30;2.73;;;;;;;7.78;87.67;99265.34;5135744;27;41528;-89
2022/01/10 10:29:17;;;;;;;9.33;3.57;;;;;;;7.65;87.35;99247.50;5118356;27;40977;-87
2022/01/10 10:31:47;;;;;;;3.87;2.43;;;;;;;7.69;87.13;99262.25;5150824;27;39753;-86
2022/01/10 10:34:19;;;;;;;2.90;2.30;;;;;;;7.55;86.98;99240.00;5134654;27;41591;-85
2022/01/10 10:36:59;;;;;;;3.20;2.27;;;;;;;7.65;86.65;99265.97;5134378;27;42830;-84
2022/01/10 10:39:29;;;;;;;2.90;2.43;;;;;;;7.65;86.13;99273.88;5135030;27;40985;-88
2022/01/10 10:42:00;;;;;;;3.00;2.67;;;;;;;7.62;85.30;99269.59;5134085;27;39075;-84
2022/01/10 10:44:27;;;;;;;7.33;2.50;;;;;;;7.54;85.57;99251.47;5134872;27;40119;-88
2022/01/10 10:46:56;;;;;;;5.10;2.50;;;;;;;7.55;84.45;99263.72;5134061;27;41776;-84
2022/01/10 10:49:30;;;;;;;6.00;2.60;;;;;;;7.61;83.99;99267.00;5151569;27;42665;-86
2022/01/10 10:51:59;;;;;;;4.47;2.70;;;;;;;7.61;82.73;99272.28;5133958;27;39161;-85
2022/01/10 10:54:32;;;;;;;4.73;2.57;;;;;;;7.71;82.57;99278.84;5134339;27;40647;-91
2022/01/10 10:57:00;;;;;;;6.00;3.40;;;;;;;7.77;82.61;99289.16;5133725;27;42567;-91
2022/01/10 10:59:31;;;;;;;4.37;2.77;;;;;;;7.84;82.21;99290.56;5134555;27;41899;-85
2022/01/10 11:01:59;;;;;;;3.33;2.77;;;;;;;7.89;82.90;99294.75;5133690;27;38847;-85
2022/01/10 11:04:27;;;;;;;2.90;2.57;;;;;;;7.93;80.81;99295.44;5134244;27;40595;-86
2022/01/10 11:06:55;;;;;;;2.57;2.27;;;;;;;7.93;81.73;99275.19;5150967;27;42861;-87
2022/01/10 11:09:22;;;;;;;5.10;2.50;;;;;;;8.10;81.67;99299.97;5134461;27;40968;-88
2022/01/10 11:11:53;;;;;;;5.13;3.20;;;;;;;8.09;81.98;99274.50;5133493;27;40307;-85
2022/01/10 11:14:22;;;;;;;3.97;2.73;;;;;;;8.31;81.52;99304.25;5150567;27;42548;-89
2022/01/10 11:16:52;;;;;;;4.23;3.13;;;;;;;8.40;81.15;99311.78;5133445;27;41869;-88
2022/01/10 11:19:22;;;;;;;4.57;2.37;;;;;;;8.44;79.75;99315.13;5126642;27;42247;-86
2022/01/10 11:21:55;;;;;;;4.40;2.37;;;;;;;8.45;78.49;99322.13;5119978;27;39898;-90
2022/01/10 11:24:44;;;;;;;7.90;2.37;;;;;;;8.48;78.03;99328.13;5120601;27;40882;-86
2022/01/10 11:27:29;;;;;;;3.23;2.47;;;;;;;8.46;77.49;99311.50;5121046;27;42850;-85
2022/01/10 11:29:57;;;;;;;4.20;3.03;;;;;;;8.39;77.88;99293.38;5120920;27;42380;-87
2022/01/10 11:33:01;;;;;;;2.93;2.30;;;;;;;8.58;75.79;99336.47;5120465;27;39797;-87
2022/01/10 11:35:30;;;;;;;7.43;2.70;;;;;;;8.68;76.82;99340.38;5115065;27;40674;-84
2022/01/10 11:37:58;;;;;;;2.97;2.57;;;;;;;8.65;76.83;99333.44;5123937;27;42978;-87
2022/01/10 11:40:26;;;;;;;3.83;2.73;;;;;;;8.63;76.78;99324.78;5120021;27;41410;-84
2022/01/10 11:42:58;;;;;;;3.87;2.20;;;;;;;8.80;76.49;99352.13;5121605;27;39829;-84
2022/01/10 11:45:27;;;;;;;2.83;2.13;;;;;;;8.78;76.11;99348.75;5137777;27;42232;-85
2022/01/10 11:48:15;;;;;;;3.80;2.53;;;;;;;8.89;75.74;99354.38;5121472;27;41580;-84
2022/01/10 11:50:46;;;;;;;3.67;1.93;;;;;;;8.85;76.08;99348.38;5136572;27;42264;-85
2022/01/10 11:53:16;;;;;;;4.33;2.90;;;;;;;8.96;76.31;99366.34;5120603;27;39114;-84
2022/01/10 11:55:54;;;;;;;4.90;2.70;;;;;;;8.98;75.92;99373.28;5119742;27;40389;-85
2022/01/10 11:58:25;;;;;;;3.03;2.60;;;;;;;8.87;74.56;99361.50;5134723;27;43897;-86
2022/01/10 12:01:05;;;;;;;3.87;2.87;;;;;;;8.91;74.55;99366.56;5155590;27;41641;-84
2022/01/10 12:03:33;;;;;;;4.63;2.50;;;;;;;8.97;74.50;99370.69;5137719;27;39959;-86
2022/01/10 12:06:01;;;;;;;3.83;2.20;;;;;;;9.02;74.17;99374.81;5119060;27;40807;-85
2022/01/10 12:08:28;;;;;;;3.13;2.70;;;;;;;9.05;73.66;99376.47;5119766;27;41986;-84
2022/01/10 12:10:57;;;;;;;3.20;2.57;;;;;;;9.04;73.56;99376.53;5154874;27;42317;-85
2022/01/10 12:13:29;;;;;;;6.23;2.57;;;;;;;9.06;72.44;99387.88;5120269;27;38443;-86
2022/01/10 12:15:59;;;;;;;6.00;3.43;;;;;;;9.15;72.35;99395.41;5125476;27;40752;-84
2022/01/10 12:18:26;;;;;;;5.07;2.50;;;;;;;9.12;72.50;99387.59;5175794;27;43517;-84
2022/01/10 12:20:54;;;;;;;4.00;2.70;;;;;;;9.26;72.34;99407.16;5139929;27;42459;-85
2022/01/10 12:23:22;;;;;;;3.97;2.57;;;;;;;9.24;72.65;99384.38;5158198;27;39106;-90
2022/01/10 12:25:49;;;;;;;5.27;2.57;;;;;;;9.32;72.11;99392.78;5134476;27;40799;-87
2022/01/10 12:28:17;;;;;;;5.10;2.73;;;;;;;9.30;71.28;99400.78;5132440;27;41592;-87
2022/01/10 12:30:46;;;;;;;4.83;2.60;;;;;;;9.32;70.22;99403.34;5118208;27;42034;-85
2022/01/10 12:33:14;;;;;;;3.30;2.73;;;;;;;9.32;68.75;99424.50;5120154;27;40038;-85
2022/01/10 12:35:49;;;;;;;2.50;2.27;;;;;;;9.38;70.22;99429.50;5116703;27;41628;-93
2022/01/10 12:38:20;;;;;;;6.07;2.27;;;;;;;9.38;69.34;99445.34;5119558;27;42000;-86
2022/01/10 12:40:49;;;;;;;4.23;2.60;;;;;;;9.32;69.87;99437.72;5113827;27;40967;-87
2022/01/10 12:43:17;;;;;;;3.67;2.30;;;;;;;9.29;70.21;99441.34;5135386;27;39805;-88
2022/01/10 12:45:48;;;;;;;3.20;2.13;;;;;;;9.10;69.57;99415.88;5111934;27;40702;-90
2022/01/10 12:48:15;;;;;;;4.33;2.30;;;;;;;9.35;69.60;99461.34;5114940;27;41717;-89
2022/01/10 12:50:51;;;;;;;6.03;2.87;;;;;;;9.22;70.23;99436.44;5119098;27;41345;-82
2022/01/10 12:53:20;;;;;;;2.77;2.33;;;;;;;9.31;70.82;99457.13;5100935;27;40202;-86
2022/01/10 12:55:48;;;;;;;5.33;2.20;;;;;;;9.29;70.75;99453.69;5117879;27;41961;-86
2022/01/10 12:58:15;;;;;;;3.33;2.00;;;;;;;9.32;71.21;99457.06;5119885;27;42425;-87
2022/01/10 13:00:44;;;;;;;2.93;2.37;;;;;;;9.34;70.68;99464.94;5119226;27;41189;-83
2022/01/10 13:03:14;;;;;;;3.73;2.50;;;;;;;9.18;69.84;99437.50;5103795;27;39175;-93
2022/01/10 13:05:46;;;;;;;3.90;3.10;;;;;;;9.34;70.41;99465.78;5119268;27;42020;-87
2022/01/10 13:08:14;;;;;;;3.30;2.07;;;;;;;9.24;70.79;99442.50;5114063;27;41675;-85
2022/01/10 13:10:45;;;;;;;3.13;2.77;;;;;;;9.45;70.33;99473.19;5139195;27;41220;-83
2022/01/10 13:13:14;;;;;;;3.07;2.63;;;;;;;9.37;67.52;99491.22;5119360;27;38708;-87
2022/01/10 13:15:43;;;;;;;2.53;2.13;;;;;;;9.33;69.38;99489.66;5118227;27;41805;-87
2022/01/10 13:18:12;;;;;;;2.67;2.47;;;;;;;9.23;69.72;99485.72;5119046;27;44083;-91
2022/01/10 13:20:43;;;;;;;2.27;1.80;;;;;;;9.06;70.09;99464.50;5118413;27;42212;-88
2022/01/10 13:23:15;;;;;;;3.87;1.90;;;;;;;9.23;69.96;99498.94;5102613;27;39146;-83
2022/01/10 13:25:45;;;;;;;4.73;2.13;;;;;;;9.16;70.10;99484.28;5118794;27;40760;-90
2022/01/10 13:28:15;;;;;;;2.60;1.73;;;;;;;9.16;69.71;99497.50;5123275;27;41899;-86
2022/01/10 13:30:50;;;;;;;3.20;2.10;;;;;;;9.19;70.38;99505.28;5122207;27;41054;-89
2022/01/10 13:33:18;;;;;;;3.40;3.00;;;;;;;9.00;69.38;99487.66;5102874;27;39009;-88
2022/01/10 13:35:57;;;;;;;4.57;1.97;;;;;;;8.95;69.71;99481.72;5118356;27;40938;-86
2022/01/10 13:38:26;;;;;;;2.70;2.00;;;;;;;8.96;69.60;99494.00;5119831;27;41857;-88
2022/01/10 13:40:55;;;;;;;5.77;2.13;;;;;;;9.00;69.28;99495.59;5118370;27;42057;-87
2022/01/10 13:43:25;;;;;;;4.00;2.17;;;;;;;9.04;70.18;99508.63;5118606;27;40342;-89
2022/01/10 13:45:57;;;;;;;3.67;2.30;;;;;;;8.97;70.01;99502.78;5118266;27;41724;-87
2022/01/10 13:48:26;;;;;;;4.90;2.47;;;;;;;8.98;69.69;99515.06;5126868;27;42138;-88
2022/01/10 13:50:57;;;;;;;2.80;2.10;;;;;;;9.05;70.24;99529.69;5114263;27;41288;-89
2022/01/10 13:53:27;;;;;;;3.50;2.17;;;;;;;9.05;70.20;99527.06;5116533;27;39283;-89
2022/01/10 13:56:15;;;;;;;1.77;1.67;;;;;;;8.83;70.47;99490.19;5117622;27;42062;-89
2022/01/10 13:58:45;;;;;;;3.17;1.70;;;;;;;8.95;71.10;99510.78;5118715;27;41672;-90
2022/01/10 14:01:15;;;;;;;4.03;1.93;;;;;;;8.75;70.97;99491.47;5109069;27;41874;-89
2022/01/10 14:03:46;;;;;;;4.83;2.53;;;;;;;8.92;70.53;99532.03;5127546;27;40043;-89
2022/01/10 14:06:18;;;;;;;5.07;2.17;;;;;;;8.57;70.95;99467.59;5110625;27;40752;-89
2022/01/10 14:08:49;;;;;;;3.00;2.60;;;;;;;8.59;71.13;99475.47;5114699;27;42873;-88
2022/01/10 14:11:18;;;;;;;3.00;2.47;;;;;;;8.91;70.54;99537.38;5117978;27;42194;-89
2022/01/10 14:13:49;;;;;;;3.43;2.30;;;;;;;8.79;70.80;99514.16;5117955;27;39180;-89
2022/01/10 14:16:19;;;;;;;2.63;1.60;;;;;;;8.95;71.24;99542.47;5134688;27;40655;-89
2022/01/10 14:18:48;;;;;;;2.17;1.73;;;;;;;8.76;71.43;99515.19;5117968;27;42080;-89
2022/01/10 14:21:18;;;;;;;2.50;1.80;;;;;;;8.76;71.44;99516.97;5118144;27;41138;-83
2022/01/10 14:23:48;;;;;;;3.27;1.73;;;;;;;8.59;71.35;99493.94;5117528;27;39642;-89
2022/01/10 14:26:16;;;;;;;4.03;2.00;;;;;;;8.95;71.54;99574.19;5118839;27;40977;-89
2022/01/10 14:28:45;;;;;;;3.90;2.60;;;;;;;8.66;71.50;99529.69;5118773;27;41927;-92
2022/01/10 14:31:13;;;;;;;2.07;1.97;;;;;;;8.92;71.77;99568.16;5118575;27;42342;-86
2022/01/10 14:33:41;;;;;;;3.07;1.80;;;;;;;8.68;71.85;99545.47;5118376;27;39443;-85
2022/01/10 14:36:09;;;;;;;2.53;1.67;;;;;;;8.72;71.72;99576.97;5118286;27;40767;-91
2022/01/10 14:38:40;;;;;;;3.57;2.50;;;;;;;8.55;71.58;99559.22;5119197;27;41530;-89
2022/01/10 14:41:07;;;;;;;4.67;2.00;;;;;;;8.63;71.60;99583.53;5117191;27;41311;-88
2022/01/10 14:43:36;;;;;;;2.20;1.93;;;;;;;8.57;71.72;99589.03;5120093;27;39588;-87
2022/01/10 14:46:04;;;;;;;2.17;1.80;;;;;;;8.31;72.22;99547.03;5114713;27;41103;-89
2022/01/10 14:48:32;;;;;;;2.83;1.90;;;;;;;8.55;72.19;99605.88;5117990;27;41869;-89
2022/01/10 14:51:00;;;;;;;2.57;2.17;;;;;;;8.48;72.44;99601.78;5116558;27;41460;-87
2022/01/10 14:53:27;;;;;;;2.77;1.60;;;;;;;8.39;72.66;99602.19;5135417;27;40145;-89
2022/01/10 14:55:57;;;;;;;3.60;2.40;;;;;;;7.95;72.83;99546.78;5120545;27;40768;-88
2022/01/10 14:58:25;;;;;;;4.23;1.87;;;;;;;8.20;72.55;99594.09;5138857;27;42745;-91
2022/01/10 15:00:52;;;;;;;3.43;1.60;;;;;;;8.08;73.16;99584.91;5120780;27;41511;-89
2022/01/10 15:03:23;;;;;;;2.50;1.60;;;;;;;7.91;73.07;99572.41;5123520;27;39693;-89
2022/01/10 15:05:53;;;;;;;4.10;1.90;;;;;;;8.03;73.57;99602.72;5121157;27;40686;-88
2022/01/10 15:08:22;;;;;;;1.97;1.80;;;;;;;8.05;73.29;99621.09;5121573;27;42957;-84
2022/01/10 15:10:51;;;;;;;3.13;1.93;;;;;;;7.75;73.70;99586.28;5119967;27;40794;-89
2022/01/10 15:13:21;;;;;;;2.53;1.93;;;;;;;7.64;73.70;99584.06;5120767;27;38488;-90
2022/01/10 15:15:49;;;;;;;4.53;2.00;;;;;;;7.44;74.06;99565.50;5122545;27;41132;-86
2022/01/10 15:18:21;;;;;;;3.33;2.13;;;;;;;7.66;74.10;99618.28;5138524;27;43073;-88
2022/01/10 15:20:50;;;;;;;7.30;1.93;;;;;;;7.47;74.20;99607.56;5119153;27;41591;-91
2022/01/10 15:23:18;;;;;;;2.00;1.80;;;;;;;7.36;74.38;99599.22;5120589;27;39177;-87
2022/01/10 15:25:49;;;;;;;3.70;1.70;;;;;;;7.52;74.27;99638.13;5110557;27;40893;-85
2022/01/10 15:28:17;;;;;;;1.77;1.67;;;;;;;7.46;74.69;99643.59;5119296;27;41765;-88
2022/01/10 15:30:47;;;;;;;2.17;1.60;;;;;;;7.42;74.68;99647.25;5117751;27;41406;-90
2022/01/10 15:33:16;;;;;;;3.17;1.67;;;;;;;7.04;74.68;99593.38;5122716;27;38435;-90
2022/01/10 15:35:50;;;;;;;2.87;1.43;;;;;;;7.03;75.00;99603.97;5123966;27;43368;-91
2022/01/10 15:38:18;;;;;;;2.07;1.40;;;;;;;7.29;75.17;99650.44;5122090;27;41611;-88
2022/01/10 15:40:46;;;;;;;1.70;1.60;;;;;;;7.07;75.17;99637.16;5120360;27;41471;-89
2022/01/10 15:43:14;;;;;;;3.33;1.80;;;;;;;7.00;75.34;99638.28;5120644;27;39186;-88
2022/01/10 15:45:42;;;;;;;2.97;1.60;;;;;;;7.00;75.28;99643.56;5117425;27;41722;-85
2022/01/10 15:48:10;;;;;;;1.20;1.10;;;;;;;7.07;75.61;99672.25;5120252;27;43191;-87
2022/01/10 15:50:38;;;;;;;1.47;1.33;;;;;;;7.07;75.75;99676.66;5120199;27;42369;-85
2022/01/10 15:53:06;;;;;;;1.43;1.33;;;;;;;7.05;75.75;99673.22;5121839;27;38471;-86
2022/01/10 15:55:33;;;;;;;3.33;1.97;;;;;;;6.98;75.91;99684.88;5120504;27;41022;-89
2022/01/10 15:58:02;;;;;;;3.53;2.03;;;;;;;7.04;75.74;99703.13;5121469;27;42717;-87
2022/01/10 16:00:30;;;;;;;1.67;1.40;;;;;;;6.90;75.75;99687.78;5119021;27;41343;-87
2022/01/10 16:02:57;;;;;;;1.83;1.70;;;;;;;6.88;75.69;99696.66;5119878;27;38788;-86
2022/01/10 16:05:27;;;;;;;2.60;1.43;;;;;;;6.86;76.09;99712.50;5118970;27;41694;-91
2022/01/10 16:07:54;;;;;;;3.10;1.90;;;;;;;6.74;76.14;99708.50;5119989;27;41640;-86
2022/01/10 16:10:22;;;;;;;5.40;1.60;;;;;;;6.79;76.18;99714.50;5119924;27;40934;-87
2022/01/10 16:12:50;;;;;;;3.60;2.53;;;;;;;6.69;76.33;99713.03;5119623;27;39930;-87
2022/01/10 16:15:19;;;;;;;2.33;1.90;;;;;;;6.61;76.30;99714.22;5118288;27;40671;-86
2022/01/10 16:17:47;;;;;;;2.80;2.13;;;;;;;6.63;76.17;99723.78;5118926;27;43206;-85
2022/01/10 16:20:15;;;;;;;3.10;2.47;;;;;;;6.58;76.39;99730.97;5119217;27;41132;-87
2022/01/10 16:22:44;;;;;;;4.87;2.30;;;;;;;6.67;76.34;99751.75;5137089;27;39407;-85
2022/01/10 16:25:12;;;;;;;3.67;2.23;;;;;;;6.55;76.51;99741.63;5136510;27;41690;-86
2022/01/10 16:27:39;;;;;;;2.00;1.70;;;;;;;6.49;76.60;99736.53;5119240;27;42122;-87
2022/01/10 16:30:08;;;;;;;2.63;1.63;;;;;;;6.60;76.57;99771.25;5118294;27;41520;-85
2022/01/10 16:32:36;;;;;;;3.10;2.23;;;;;;;6.58;76.75;99767.81;5154359;27;39811;-85
2022/01/10 16:35:05;;;;;;;2.33;1.67;;;;;;;6.59;76.82;99782.69;5118542;27;41041;-84
2022/01/10 16:37:37;;;;;;;4.50;2.30;;;;;;;6.47;76.62;99765.53;5119152;27;41856;-84
2022/01/10 16:40:09;;;;;;;2.90;1.77;;;;;;;6.45;76.78;99766.47;5118125;27;42264;-86
2022/01/10 16:42:37;;;;;;;1.97;1.50;;;;;;;6.52;76.82;99789.06;5118673;27;40190;-86
2022/01/10 16:45:07;;;;;;;1.73;1.63;;;;;;;6.52;76.78;99788.22;5118584;27;41607;-86
2022/01/10 16:47:35;;;;;;;3.03;2.40;;;;;;;6.41;76.72;99775.38;5118721;27;42717;-86
2022/01/10 16:50:03;;;;;;;3.93;2.90;;;;;;;6.47;76.66;99801.50;5118561;27;41226;-88
2022/01/10 16:52:32;;;;;;;6.97;5.57;;;;;;;6.40;76.82;99786.81;5118685;27;39000;-87
2022/01/10 16:54:59;;;;;;;3.73;3.10;;;;;;;6.35;76.85;99786.09;5118707;27;40836;-86
2022/01/10 16:57:28;;;;;;;3.50;2.80;;;;;;;6.34;77.07;99794.88;5118437;27;43504;-85
2022/01/10 16:59:58;;;;;;;6.07;2.77;;;;;;;6.38;77.30;99807.91;5118643;27;41399;-86
2022/01/10 17:02:25;;;;;;;3.70;2.93;;;;;;;6.37;76.98;99813.22;5119074;27;39365;-88
2022/01/10 17:04:53;;;;;;;4.17;3.00;;;;;;;6.35;77.06;99812.41;5118518;27;41876;-86
2022/01/10 17:07:21;;;;;;;4.70;3.00;;;;;;;6.23;77.20;99802.25;5122831;27;41411;-87
2022/01/10 17:09:54;;;;;;;3.10;2.07;;;;;;;6.27;77.21;99824.91;5140137;27;42457;-88
2022/01/10 17:12:24;;;;;;;5.77;3.27;;;;;;;6.28;77.59;99832.78;5139512;27;39120;-89
2022/01/10 17:14:53;;;;;;;3.47;2.70;;;;;;;6.21;77.36;99827.72;5156979;27;42412;-85
2022/01/10 17:17:20;;;;;;;5.13;3.33;;;;;;;6.02;77.58;99809.88;5118092;27;42030;-85
2022/01/10 17:19:48;;;;;;;3.00;2.40;;;;;;;6.09;77.43;99821.91;5118689;27;41106;-83
2022/01/10 17:22:19;;;;;;;8.07;3.70;;;;;;;6.20;77.66;99852.28;5117886;27;40142;-83
2022/01/10 17:24:47;;;;;;;4.50;3.13;;;;;;;6.07;78.06;99839.50;5135280;27;40623;-84
2022/01/10 17:27:15;;;;;;;5.57;3.23;;;;;;;6.10;77.95;99855.19;5117640;27;41982;-86
2022/01/10 17:29:42;;;;;;;5.03;3.37;;;;;;;5.93;78.09;99835.56;5119657;27;40914;-86
2022/01/10 17:32:11;;;;;;;7.07;3.77;;;;;;;5.99;78.19;99846.75;5135901;27;40231;-90
2022/01/10 17:34:39;;;;;;;3.80;3.20;;;;;;;5.88;78.53;99832.16;5120456;27;40462;-91
2022/01/10 17:37:06;;;;;;;6.40;3.60;;;;;;;5.99;78.22;99867.78;5118362;27;41782;-89
